Tuesday, October 16, 2018, 6:50 PM EDT
Back to Local

KUKT, Quakertown, Quakertown Airport

Location: Quakertown, PA, United States Lat: 40.435
Local Time: 6:50 PM EDT (22:50 GMT) Lon: -75.382
Time Zone: US/Eastern Elev: 524 ft

Show me the last for .
Show Decoded

2018-10-16 18:35 METAR KUKT 162235Z AUTO 00000KT 10SM CLR 09/03 A3008 RMK A01 =
2018-10-16 18:15 METAR KUKT 162215Z AUTO 00000KT 10SM CLR 10/03 A3008 RMK A01 =
2018-10-16 17:55 METAR KUKT 162155Z AUTO 00000KT 10SM CLR 10/03 A3009 RMK A01 =
2018-10-16 17:35 METAR KUKT 162135Z AUTO 00000KT 10SM CLR 11/02 A3009 RMK A01 =
2018-10-16 17:15 METAR KUKT 162115Z AUTO 22005KT 10SM CLR 11/02 A3009 RMK A01 =
2018-10-16 16:55 METAR KUKT 162055Z AUTO 24008KT 10SM CLR 12/02 A3009 RMK A01 =
2018-10-16 16:35 METAR KUKT 162035Z AUTO 22006KT 10SM CLR 12/02 A3008 RMK A01 =
2018-10-16 16:15 METAR KUKT 162015Z AUTO 22006KT 10SM CLR 12/02 A3009 RMK A01 =
2018-10-16 15:55 METAR KUKT 161955Z AUTO 21008KT 10SM CLR 12/02 A3009 RMK A01 =
2018-10-16 15:35 METAR KUKT 161935Z AUTO 21006KT 10SM CLR 12/02 A3010 RMK A01 =
2018-10-16 15:15 METAR KUKT 161915Z AUTO VRB05G10KT 10SM CLR 12/02 A3010 RMK A01 =
2018-10-16 14:55 METAR KUKT 161855Z AUTO 23006KT 10SM CLR 12/01 A3010 RMK A01 =
2018-10-16 14:35 METAR KUKT 161835Z AUTO 22006KT 10SM CLR 12/01 A3011 RMK A01 =
2018-10-16 14:15 METAR KUKT 161815Z AUTO 24006KT 10SM CLR 12/01 A3012 RMK A01 =
2018-10-16 13:55 METAR KUKT 161755Z AUTO 23004G11KT 10SM CLR 12/01 A3012 RMK A01 =
2018-10-16 13:35 METAR KUKT 161735Z AUTO 26007KT 10SM CLR 12/01 A3014 RMK A01 =
2018-10-16 13:15 METAR KUKT 161715Z AUTO 00000G10KT 10SM CLR 11/01 A3015 RMK A01 =
2018-10-16 12:55 METAR KUKT 161655Z AUTO VRB04KT 10SM CLR 11/00 A3016 RMK A01 =
2018-10-16 12:35 METAR KUKT 161635Z AUTO 25007KT 220V280 10SM CLR 10/M00 A3017 RMK A01 =
2018-10-16 12:15 METAR KUKT 161615Z AUTO 00000KT 10SM CLR 10/M00 A3018 RMK A01 =
2018-10-16 11:55 METAR KUKT 161555Z AUTO 27006G11KT 10SM CLR 10/M00 A3018 RMK A01 =
2018-10-16 11:35 METAR KUKT 161535Z AUTO 30005KT 10SM CLR 10/M00 A3018 RMK A01 =
2018-10-16 11:15 METAR KUKT 161515Z AUTO 28004KT 10SM CLR 10/00 A3019 RMK A01 =
2018-10-16 10:55 METAR KUKT 161455Z AUTO VRB04KT 10SM CLR 10/00 A3020 RMK A01 =
2018-10-16 10:35 METAR KUKT 161435Z AUTO 00000G10KT 10SM CLR 09/01 A3020 RMK A01 =
2018-10-16 10:15 METAR KUKT 161415Z AUTO 34009G15KT 10SM CLR 09/M00 A3020 RMK A01 =
2018-10-16 09:55 METAR KUKT 161355Z AUTO 34005G13KT 10SM CLR 08/M00 A3020 RMK A01 =
2018-10-16 09:35 METAR KUKT 161335Z AUTO 33006G12KT 10SM CLR 08/M00 A3021 RMK A01 =
2018-10-16 09:15 METAR KUKT 161315Z AUTO 00000G12KT 10SM CLR 08/M00 A3021 RMK A01 =
2018-10-16 08:55 METAR KUKT 161255Z AUTO 32010KT 10SM CLR 08/M00 A3020 RMK A01 =
2018-10-16 08:35 METAR KUKT 161235Z AUTO VRB05G11KT 10SM CLR 08/01 A3020 RMK A01 =
2018-10-16 08:15 METAR KUKT 161215Z AUTO 33007KT 10SM CLR 08/01 A3018 RMK A01 =
2018-10-16 07:55 METAR KUKT 161155Z AUTO 33005KT 10SM CLR 07/01 A3018 RMK A01 =
2018-10-16 07:35 METAR KUKT 161135Z AUTO 00000KT 10SM CLR 07/02 A3018 RMK A01 =
2018-10-16 07:15 METAR KUKT 161115Z AUTO 33005KT 10SM CLR 07/02 A3016 RMK A01 =
2018-10-16 06:55 METAR KUKT 161055Z AUTO VRB05G14KT 10SM CLR 08/02 A3016 RMK A01 =
2018-10-16 06:35 METAR KUKT 161035Z AUTO 33009KT 10SM CLR 09/02 A3015 RMK A01 =
2018-10-16 06:15 METAR KUKT 161015Z AUTO VRB05KT 10SM CLR 09/02 A3015 RMK A01 =
2018-10-16 05:55 METAR KUKT 160955Z AUTO 31004G12KT 10SM CLR 09/02 A3014 RMK A01 =
2018-10-16 05:35 METAR KUKT 160935Z AUTO 00000KT 10SM CLR 10/03 A3013 RMK A01 =
2018-10-16 05:15 METAR KUKT 160915Z AUTO VRB05KT 10SM CLR 10/03 A3012 RMK A01 =
2018-10-16 04:55 METAR KUKT 160855Z AUTO VRB06KT 10SM CLR 10/03 A3011 RMK A01 =
2018-10-16 04:35 METAR KUKT 160835Z AUTO VRB06G16KT 10SM CLR 11/03 A3010 RMK A01 =
2018-10-16 04:15 METAR KUKT 160815Z AUTO 30007G12KT 270V340 10SM CLR 11/04 A3008 RMK A01 =
2018-10-16 03:55 METAR KUKT 160755Z AUTO VRB05G14KT 10SM CLR 11/06 A3007 RMK A01 =
2018-10-16 03:35 METAR KUKT 160735Z AUTO 30006KT 10SM CLR 11/06 A3006 RMK A01 =
2018-10-16 03:15 METAR KUKT 160715Z AUTO VRB04KT 10SM CLR 12/06 A3006 RMK A01 =
2018-10-16 02:55 METAR KUKT 160655Z AUTO VRB04G15KT 10SM CLR 12/06 A3005 RMK A01 =
2018-10-16 02:35 METAR KUKT 160635Z AUTO VRB06G11KT 10SM CLR 12/07 A3005 RMK A01 =
2018-10-16 02:15 METAR KUKT 160615Z AUTO 29007KT 260V320 10SM CLR 12/07 A3005 RMK A01 =
2018-10-16 01:55 METAR KUKT 160555Z AUTO 28006G18KT 10SM CLR 13/07 A3004 RMK A01 =
2018-10-16 01:35 METAR KUKT 160535Z AUTO VRB06G15KT 10SM FEW080 FEW090 13/08 A3004 RMK A01 =
2018-10-16 01:15 METAR KUKT 160515Z AUTO 29008G18KT 260V320 10SM FEW036 SCT065 BKN085 13/09 A3003
                 RMK A01 =
2018-10-16 00:55 METAR KUKT 160455Z AUTO 32007KT 10SM FEW017 SCT024 OVC065 14/12 A3001 RMK A01
                 P0001 =
2018-10-16 00:35 METAR KUKT 160435Z AUTO VRB06G15KT 4SM BR SCT021 BKN035 OVC065 14/12 A3001 RMK
                 A01 =
2018-10-16 00:15 METAR KUKT 160415Z AUTO VRB04G10KT 9SM FEW027 SCT044 OVC050 14/13 A3000 RMK A01
                 =
2018-10-15 23:55 METAR KUKT 160355Z AUTO VRB05G11KT 10SM FEW022 FEW031 OVC050 14/13 A2999 RMK A01
                 P0002 =
2018-10-15 23:35 METAR KUKT 160335Z AUTO 29007G18KT 5SM BR FEW021 BKN041 OVC047 15/13 A2998 RMK
                 A01 =
2018-10-15 23:15 METAR KUKT 160315Z AUTO 29008G14KT 260V320 9SM SCT025 SCT031 OVC039 15/14 A2997
                 RMK A01 =
2018-10-15 22:55 METAR KUKT 160255Z AUTO 29008G23KT 250V330 7SM FEW014 BKN025 OVC032 16/15 A2996
                 RMK A01 =
2018-10-15 22:35 METAR KUKT 160235Z AUTO 27007G12KT 230V290 7SM BKN027 OVC032 18/16 A2994 RMK A01
                 =
2018-10-15 22:15 METAR KUKT 160215Z AUTO 25007KT 10SM SCT016 OVC025 18/17 A2993 RMK A01 =
2018-10-15 21:55 METAR KUKT 160155Z AUTO 25009KT 10SM BKN018 BKN043 BKN050 18/18 A2993 RMK A01 =
2018-10-15 21:35 METAR KUKT 160135Z AUTO 27005KT 10SM FEW039 BKN048 18/18 A2991 RMK A01 =
2018-10-15 21:15 METAR KUKT 160115Z AUTO 23005KT 10SM BKN048 BKN055 18/18 A2991 RMK A01 =
2018-10-15 20:55 METAR KUKT 160055Z AUTO 22007KT 10SM FEW043 SCT048 BKN055 18/18 A2991 RMK A01 =
2018-10-15 20:35 METAR KUKT 160035Z AUTO 22007KT 10SM SCT048 SCT060 18/18 A2991 RMK A01 =
2018-10-15 20:15 METAR KUKT 160015Z AUTO 00000KT 10SM CLR 18/18 A2991 RMK A01 =
2018-10-15 19:55 METAR KUKT 152355Z AUTO 22007KT 10SM CLR 18/18 A2990 RMK A01 =
2018-10-15 19:35 METAR KUKT 152335Z AUTO 21008KT 10SM FEW016 18/18 A2990 RMK A01 =
2018-10-15 19:15 METAR KUKT 152315Z AUTO 20006KT 10SM FEW011 SCT016 SCT047 17/18 A2991 RMK A01 =
2018-10-15 18:55 METAR KUKT 152255Z AUTO 21006KT 10SM FEW012 SCT049 17/18 A2992 RMK A01 =

Support USWX by starting your Amazon purchase here.